createdAt,value
2023-12-26T00:00:38.693Z,89.16
2023-12-26T00:03:08.051Z,88.70
2023-12-26T00:05:35.171Z,89.24
2023-12-26T00:08:05.379Z,90.19
2023-12-26T00:10:32.059Z,89.83
2023-12-26T00:13:01.150Z,89.97
2023-12-26T00:15:28.427Z,89.94
2023-12-26T00:17:55.108Z,89.66
2023-12-26T00:20:21.790Z,90.57
2023-12-26T00:22:48.373Z,93.76
2023-12-26T00:25:14.970Z,92.09
2023-12-26T00:27:42.472Z,91.08
2023-12-26T00:30:09.603Z,90.94
2023-12-26T00:32:36.414Z,90.38
2023-12-26T00:35:03.591Z,90.75
2023-12-26T00:37:30.501Z,91.29
2023-12-26T00:39:56.986Z,92.14
2023-12-26T00:42:24.624Z,93.37
2023-12-26T00:44:52.438Z,93.50
2023-12-26T00:47:19.058Z,94.59
2023-12-26T00:49:45.724Z,93.62
2023-12-26T00:52:12.359Z,95.39
2023-12-26T00:54:38.917Z,96.23
2023-12-26T00:57:05.598Z,95.16
2023-12-26T00:59:32.251Z,94.72
2023-12-26T01:02:02.602Z,95.00
2023-12-26T01:04:29.891Z,94.85
2023-12-26T01:06:56.506Z,94.55
2023-12-26T01:09:23.063Z,94.03
2023-12-26T01:11:49.742Z,93.94
2023-12-26T01:14:16.411Z,93.88
2023-12-26T01:16:46.322Z,93.32
2023-12-26T01:19:14.247Z,93.71
2023-12-26T01:21:41.054Z,94.93
2023-12-26T01:24:07.640Z,94.67
2023-12-26T01:26:34.617Z,94.75
2023-12-26T01:29:02.331Z,93.92
2023-12-26T01:31:29.564Z,93.82
2023-12-26T01:33:56.196Z,94.53
2023-12-26T01:36:22.888Z,95.46
2023-12-26T01:38:49.478Z,94.46
2023-12-26T01:41:16.093Z,94.94
2023-12-26T01:43:42.617Z,94.13
2023-12-26T01:46:10.138Z,95.53
2023-12-26T01:48:37.653Z,95.88
2023-12-26T01:51:05.864Z,94.92
2023-12-26T01:53:33.159Z,95.19
2023-12-26T01:56:00.370Z,95.70
2023-12-26T01:58:26.986Z,95.47
2023-12-26T02:00:53.864Z,96.39
2023-12-26T02:03:20.987Z,97.05
2023-12-26T02:05:48.001Z,95.91
2023-12-26T02:08:18.447Z,96.38
2023-12-26T02:10:46.283Z,96.94
2023-12-26T02:13:13.121Z,96.91
2023-12-26T02:15:39.710Z,98.13
2023-12-26T02:18:06.852Z,97.59
2023-12-26T02:20:33.511Z,97.51
2023-12-26T02:23:02.600Z,98.99
2023-12-26T02:25:30.990Z,98.29
2023-12-26T02:27:59.932Z,98.84
2023-12-26T02:30:27.559Z,99.37
2023-12-26T02:32:55.215Z,98.66
2023-12-26T02:35:22.703Z,99.47
2023-12-26T02:37:50.950Z,98.78
2023-12-26T02:40:17.547Z,99.40
2023-12-26T02:42:44.066Z,99.50
2023-12-26T02:45:11.208Z,100.00
2023-12-26T02:47:38.091Z,100.00
2023-12-26T02:50:07.206Z,99.88
2023-12-26T02:52:33.741Z,98.63
2023-12-26T02:55:00.278Z,99.58
2023-12-26T02:57:26.809Z,99.63
2023-12-26T02:59:53.353Z,100.00
2023-12-26T03:02:20.202Z,100.00
2023-12-26T03:04:47.391Z,99.57
2023-12-26T03:07:13.887Z,100.00
2023-12-26T03:09:40.420Z,100.00
2023-12-26T03:12:07.119Z,100.00
2023-12-26T03:14:33.711Z,100.00
2023-12-26T03:17:00.286Z,100.00
2023-12-26T03:19:27.253Z,100.00
2023-12-26T03:21:53.990Z,100.00
2023-12-26T03:24:20.500Z,99.56
2023-12-26T03:26:47.114Z,100.00
2023-12-26T03:29:13.723Z,100.00
2023-12-26T03:31:45.016Z,100.00
2023-12-26T03:34:12.414Z,100.00
2023-12-26T03:36:47.021Z,100.00
2023-12-26T03:39:13.826Z,100.00
2023-12-26T03:41:40.514Z,100.00
2023-12-26T03:44:07.437Z,100.00
2023-12-26T03:46:34.728Z,100.00
2023-12-26T03:49:01.702Z,100.00
2023-12-26T03:51:28.423Z,100.00
2023-12-26T03:53:55.779Z,100.00
2023-12-26T03:56:22.341Z,100.00
2023-12-26T03:58:49.666Z,100.00
2023-12-26T04:01:16.185Z,100.00
2023-12-26T04:03:42.940Z,100.00
2023-12-26T04:06:09.616Z,100.00
2023-12-26T04:08:36.201Z,100.00
2023-12-26T04:11:02.863Z,100.00
2023-12-26T04:13:29.390Z,100.00
2023-12-26T04:15:55.910Z,100.00
2023-12-26T04:18:22.514Z,100.00
2023-12-26T04:20:49.107Z,100.00
2023-12-26T04:23:15.638Z,100.00
2023-12-26T04:25:42.146Z,100.00
2023-12-26T04:28:08.658Z,100.00
2023-12-26T04:30:35.299Z,100.00
2023-12-26T04:33:02.533Z,100.00
2023-12-26T04:35:29.224Z,100.00
2023-12-26T04:37:55.732Z,100.00
2023-12-26T04:40:22.364Z,100.00
2023-12-26T04:42:48.942Z,100.00
2023-12-26T04:45:15.647Z,100.00
2023-12-26T04:47:42.328Z,100.00
2023-12-26T04:50:09.291Z,100.00
2023-12-26T04:52:36.114Z,100.00
2023-12-26T04:55:03.609Z,100.00
2023-12-26T04:57:30.179Z,100.00
2023-12-26T04:59:56.892Z,100.00
2023-12-26T05:02:23.659Z,100.00
2023-12-26T05:04:50.289Z,100.00
2023-12-26T05:07:16.883Z,100.00
2023-12-26T05:09:44.687Z,100.00
2023-12-26T05:12:11.346Z,100.00
2023-12-26T05:14:38.046Z,100.00
2023-12-26T05:17:04.756Z,100.00
2023-12-26T05:19:31.510Z,100.00
2023-12-26T05:21:58.169Z,100.00
2023-12-26T05:24:24.749Z,100.00
2023-12-26T05:26:51.422Z,100.00
2023-12-26T05:29:18.006Z,100.00
2023-12-26T05:31:44.563Z,100.00
2023-12-26T05:34:11.243Z,100.00
2023-12-26T05:36:38.041Z,100.00
2023-12-26T05:39:05.124Z,100.00
2023-12-26T05:41:31.871Z,100.00
2023-12-26T05:43:58.597Z,100.00
2023-12-26T05:46:32.223Z,100.00
2023-12-26T05:48:59.954Z,100.00
2023-12-26T05:51:27.391Z,100.00
2023-12-26T05:53:54.054Z,100.00
2023-12-26T05:56:21.225Z,100.00
2023-12-26T05:58:47.920Z,100.00
2023-12-26T06:01:14.587Z,100.00
2023-12-26T06:03:41.309Z,100.00
2023-12-26T06:06:15.104Z,100.00
2023-12-26T06:08:42.183Z,100.00
2023-12-26T06:11:09.535Z,100.00
2023-12-26T06:13:36.110Z,100.00
2023-12-26T06:16:02.669Z,100.00
2023-12-26T06:18:29.309Z,100.00
2023-12-26T06:20:55.925Z,100.00
2023-12-26T06:23:22.473Z,100.00
2023-12-26T06:25:48.977Z,100.00
2023-12-26T06:28:15.493Z,100.00
2023-12-26T06:30:42.162Z,100.00
2023-12-26T06:33:08.969Z,100.00
2023-12-26T06:35:35.539Z,100.00
2023-12-26T06:38:02.146Z,100.00
2023-12-26T06:40:28.663Z,100.00
2023-12-26T06:42:55.437Z,100.00
2023-12-26T06:45:22.140Z,100.00
2023-12-26T06:47:48.810Z,100.00
2023-12-26T06:50:15.682Z,100.00
2023-12-26T06:52:42.290Z,100.00
2023-12-26T06:55:08.886Z,100.00
2023-12-26T06:57:35.352Z,100.00
2023-12-26T07:00:02.281Z,100.00
2023-12-26T07:02:28.971Z,100.00
2023-12-26T07:04:55.519Z,100.00
2023-12-26T07:07:22.135Z,100.00
2023-12-26T07:09:48.601Z,100.00
2023-12-26T07:12:15.291Z,100.00
2023-12-26T07:14:41.920Z,100.00
2023-12-26T07:17:08.537Z,100.00
2023-12-26T07:19:35.344Z,100.00
2023-12-26T07:22:02.038Z,100.00
2023-12-26T07:24:28.809Z,100.00
2023-12-26T07:26:55.373Z,100.00
2023-12-26T07:29:24.631Z,100.00
2023-12-26T07:31:53.737Z,100.00
2023-12-26T07:34:20.316Z,100.00
2023-12-26T07:36:46.916Z,100.00
2023-12-26T07:39:13.428Z,100.00
2023-12-26T07:41:40.164Z,100.00
2023-12-26T07:44:06.769Z,100.00
2023-12-26T07:46:33.276Z,100.00
2023-12-26T07:48:59.952Z,100.00
2023-12-26T07:51:26.668Z,100.00
2023-12-26T07:53:53.793Z,100.00
2023-12-26T07:56:20.461Z,100.00
2023-12-26T07:58:46.954Z,100.00
2023-12-26T08:01:14.949Z,100.00
2023-12-26T08:03:41.715Z,100.00
2023-12-26T08:06:08.449Z,100.00
2023-12-26T08:08:35.039Z,100.00
2023-12-26T08:11:01.694Z,100.00
2023-12-26T08:13:28.238Z,100.00
2023-12-26T08:15:54.839Z,100.00
2023-12-26T08:18:22.046Z,100.00
2023-12-26T08:20:48.673Z,100.00
2023-12-26T08:23:15.185Z,100.00
2023-12-26T08:25:41.791Z,100.00
2023-12-26T08:28:08.326Z,100.00
2023-12-26T08:30:39.383Z,100.00
2023-12-26T08:33:06.688Z,100.00
2023-12-26T08:35:33.487Z,100.00
2023-12-26T08:38:00.001Z,100.00
2023-12-26T08:40:26.558Z,100.00
2023-12-26T08:42:53.119Z,100.00
2023-12-26T08:45:19.892Z,100.00
2023-12-26T08:47:47.073Z,100.00
2023-12-26T08:50:13.687Z,100.00
2023-12-26T08:52:40.280Z,100.00
2023-12-26T08:55:07.089Z,100.00
2023-12-26T08:57:33.615Z,100.00
2023-12-26T09:00:01.308Z,100.00
2023-12-26T09:02:27.966Z,100.00
2023-12-26T09:04:54.469Z,100.00
2023-12-26T09:07:21.046Z,100.00
2023-12-26T09:09:47.548Z,100.00
2023-12-26T09:12:14.227Z,100.00
2023-12-26T09:14:40.964Z,100.00
2023-12-26T09:17:07.587Z,100.00
2023-12-26T09:19:34.510Z,100.00
2023-12-26T09:22:01.038Z,100.00
2023-12-26T09:24:28.085Z,100.00
2023-12-26T09:26:54.632Z,100.00
2023-12-26T09:29:22.770Z,100.00
2023-12-26T09:31:49.376Z,100.00
2023-12-26T09:34:16.063Z,100.00
2023-12-26T09:36:42.650Z,100.00
2023-12-26T09:39:09.168Z,100.00
2023-12-26T09:41:35.769Z,100.00
2023-12-26T09:44:03.091Z,100.00
2023-12-26T09:46:31.352Z,100.00
2023-12-26T09:48:58.037Z,100.00
2023-12-26T09:51:45.356Z,100.00
2023-12-26T09:54:13.775Z,100.00
2023-12-26T09:56:41.871Z,100.00
2023-12-26T09:59:08.876Z,100.00
2023-12-26T10:01:35.382Z,100.00
2023-12-26T10:04:04.514Z,100.00
2023-12-26T10:06:31.835Z,100.00
2023-12-26T10:08:58.767Z,100.00
2023-12-26T10:11:27.830Z,100.00
2023-12-26T10:13:55.690Z,100.00
2023-12-26T10:16:22.788Z,100.00
2023-12-26T10:18:51.533Z,99.83
2023-12-26T10:21:20.883Z,99.92
2023-12-26T10:23:47.596Z,99.37
2023-12-26T10:26:15.279Z,98.66
2023-12-26T10:28:42.940Z,97.66
2023-12-26T10:31:16.599Z,97.41
2023-12-26T10:33:43.869Z,96.79
2023-12-26T10:36:12.072Z,96.41
2023-12-26T10:38:41.817Z,96.65
2023-12-26T10:41:14.619Z,96.03
2023-12-26T10:43:44.321Z,94.46
2023-12-26T10:46:10.915Z,94.47
2023-12-26T10:48:40.697Z,93.98
2023-12-26T10:51:07.831Z,93.77
2023-12-26T10:53:53.214Z,93.03
2023-12-26T10:56:21.216Z,92.49
2023-12-26T10:58:48.128Z,92.43
2023-12-26T11:01:16.343Z,91.14
2023-12-26T11:03:43.061Z,88.95
2023-12-26T11:06:09.699Z,87.72
2023-12-26T11:08:36.258Z,88.46
2023-12-26T11:11:03.114Z,88.27
2023-12-26T11:13:29.592Z,88.70
2023-12-26T11:15:56.380Z,89.35
2023-12-26T11:18:25.444Z,90.06
2023-12-26T11:20:53.718Z,89.77
2023-12-26T11:23:23.425Z,89.89
2023-12-26T11:25:51.414Z,88.54
2023-12-26T11:28:18.490Z,86.93
2023-12-26T11:30:46.738Z,85.36
2023-12-26T11:33:14.001Z,84.08
2023-12-26T11:35:41.376Z,84.40
2023-12-26T11:38:08.310Z,82.64
2023-12-26T11:40:35.647Z,81.04
2023-12-26T11:43:02.355Z,80.80
2023-12-26T11:45:29.290Z,81.78
2023-12-26T11:47:56.328Z,82.78
2023-12-26T11:50:22.986Z,83.35
2023-12-26T11:52:49.501Z,83.84
2023-12-26T11:55:16.145Z,84.09
2023-12-26T11:57:42.696Z,84.53
2023-12-26T12:00:09.321Z,84.75
2023-12-26T12:02:35.860Z,83.91
2023-12-26T12:05:07.274Z,84.33
2023-12-26T12:07:33.817Z,81.83
2023-12-26T12:10:10.200Z,78.16
2023-12-26T12:12:36.754Z,76.88
2023-12-26T12:15:04.381Z,77.31
2023-12-26T12:17:31.727Z,78.21
2023-12-26T12:20:02.088Z,78.06
2023-12-26T12:22:31.221Z,78.69
2023-12-26T12:25:00.153Z,78.88
2023-12-26T12:27:26.973Z,78.59
2023-12-26T12:29:59.922Z,78.61
2023-12-26T12:32:33.813Z,77.65
2023-12-26T12:35:18.080Z,77.28
2023-12-26T12:37:49.513Z,77.64
2023-12-26T12:40:16.769Z,75.84
2023-12-26T12:42:43.414Z,75.55
2023-12-26T12:45:10.108Z,75.15
2023-12-26T12:47:36.868Z,72.66
2023-12-26T12:50:04.874Z,72.53
2023-12-26T12:52:32.906Z,72.89
2023-12-26T12:54:59.465Z,72.52
2023-12-26T12:57:26.082Z,73.25
2023-12-26T12:59:52.717Z,73.22
2023-12-26T13:02:19.351Z,72.99
2023-12-26T13:04:46.448Z,72.94
2023-12-26T13:07:13.472Z,73.32
2023-12-26T13:09:40.723Z,72.94
2023-12-26T13:12:08.088Z,73.03
2023-12-26T13:14:36.076Z,73.94
2023-12-26T13:17:03.232Z,74.03
2023-12-26T13:19:34.186Z,74.21
2023-12-26T13:22:01.871Z,74.20
2023-12-26T13:24:28.453Z,73.81
2023-12-26T13:26:55.041Z,74.52
2023-12-26T13:29:25.444Z,74.14
2023-12-26T13:31:54.124Z,72.22
2023-12-26T13:34:28.919Z,71.19
2023-12-26T13:36:55.656Z,71.41
2023-12-26T13:39:22.311Z,70.87
2023-12-26T13:41:49.027Z,71.32
2023-12-26T13:44:18.381Z,70.53
2023-12-26T13:46:45.035Z,71.26
2023-12-26T13:49:11.773Z,71.08
2023-12-26T13:51:40.532Z,70.54
2023-12-26T13:54:08.231Z,70.87
2023-12-26T13:56:34.808Z,70.52
2023-12-26T13:59:02.529Z,69.37
2023-12-26T14:01:29.461Z,69.83
2023-12-26T14:03:57.471Z,70.08
2023-12-26T14:06:24.328Z,70.50
2023-12-26T14:08:52.735Z,69.99
2023-12-26T14:11:20.411Z,68.89
2023-12-26T14:13:47.968Z,69.39
2023-12-26T14:16:16.040Z,69.03
2023-12-26T14:18:43.176Z,69.34
2023-12-26T14:21:09.936Z,69.93
2023-12-26T14:23:36.603Z,70.03
2023-12-26T14:26:03.183Z,70.60
2023-12-26T14:28:29.747Z,70.80
2023-12-26T14:30:56.698Z,71.31
2023-12-26T14:33:23.718Z,72.57
2023-12-26T14:35:51.342Z,73.26
2023-12-26T14:38:18.412Z,73.61
2023-12-26T14:40:49.562Z,75.07
2023-12-26T14:43:16.616Z,76.74
2023-12-26T14:45:43.263Z,76.88
2023-12-26T14:48:10.048Z,76.68
2023-12-26T14:50:36.752Z,77.40
2023-12-26T14:53:05.848Z,77.18
2023-12-26T14:55:33.944Z,76.48
2023-12-26T14:58:00.725Z,74.82
2023-12-26T15:00:27.714Z,73.89
2023-12-26T15:02:54.973Z,73.27
2023-12-26T15:05:22.195Z,72.52
2023-12-26T15:07:50.850Z,71.76
2023-12-26T15:10:18.514Z,70.91
2023-12-26T15:12:47.468Z,70.72
2023-12-26T15:15:14.205Z,71.02
2023-12-26T15:17:41.334Z,70.92
2023-12-26T15:20:12.115Z,70.34
2023-12-26T15:22:39.497Z,71.12
2023-12-26T15:25:06.341Z,70.62
2023-12-26T15:27:33.036Z,70.07
2023-12-26T15:29:59.714Z,69.78
2023-12-26T15:32:26.262Z,69.91
2023-12-26T15:34:53.322Z,70.12
2023-12-26T15:37:19.944Z,69.76
2023-12-26T15:39:46.574Z,70.57
2023-12-26T15:42:13.261Z,70.10
2023-12-26T15:44:41.433Z,70.36
2023-12-26T15:47:09.734Z,69.83
2023-12-26T15:49:36.415Z,70.20
2023-12-26T15:52:03.147Z,69.11
2023-12-26T15:54:29.924Z,69.63
2023-12-26T15:56:56.647Z,69.71
2023-12-26T15:59:23.252Z,70.58
2023-12-26T16:01:49.755Z,72.68
2023-12-26T16:04:16.447Z,74.08
2023-12-26T16:06:43.074Z,74.99
2023-12-26T16:09:09.741Z,75.33
2023-12-26T16:11:36.696Z,75.03
2023-12-26T16:14:05.587Z,74.86
2023-12-26T16:16:32.084Z,74.96
2023-12-26T16:18:58.749Z,75.71
2023-12-26T16:21:25.688Z,76.08
2023-12-26T16:23:52.465Z,75.29
2023-12-26T16:26:19.087Z,76.13
2023-12-26T16:28:45.648Z,75.94
2023-12-26T16:31:15.906Z,76.67
2023-12-26T16:33:42.775Z,75.26
2023-12-26T16:36:10.670Z,74.06
2023-12-26T16:38:37.520Z,73.69
2023-12-26T16:41:09.144Z,73.55
2023-12-26T16:43:36.391Z,72.18
2023-12-26T16:46:10.369Z,71.73
2023-12-26T16:48:39.784Z,71.43
2023-12-26T16:51:08.424Z,71.43
2023-12-26T16:53:38.209Z,71.20
2023-12-26T16:56:09.009Z,70.06
2023-12-26T16:58:36.552Z,70.77
2023-12-26T17:01:04.905Z,70.33
2023-12-26T17:03:32.119Z,69.08
2023-12-26T17:06:02.400Z,69.32
2023-12-26T17:08:28.912Z,69.34
2023-12-26T17:10:55.488Z,68.88
2023-12-26T17:13:22.065Z,68.64
2023-12-26T17:15:48.655Z,68.53
2023-12-26T17:18:15.325Z,68.64
2023-12-26T17:20:43.641Z,68.32
2023-12-26T17:23:10.634Z,68.81
2023-12-26T17:25:37.949Z,67.85
2023-12-26T17:28:10.329Z,67.93
2023-12-26T17:30:37.595Z,68.04
2023-12-26T17:33:04.517Z,68.15
2023-12-26T17:35:33.694Z,69.39
2023-12-26T17:38:01.471Z,69.82
2023-12-26T17:40:28.045Z,69.26
2023-12-26T17:42:54.583Z,69.58
2023-12-26T17:45:21.179Z,69.85
2023-12-26T17:47:47.958Z,69.52
2023-12-26T17:50:14.715Z,69.18
2023-12-26T17:52:41.227Z,69.51
2023-12-26T17:55:08.077Z,68.77
2023-12-26T17:57:34.837Z,69.23
2023-12-26T18:00:01.552Z,69.82
2023-12-26T18:02:28.153Z,70.01
2023-12-26T18:04:56.135Z,70.52
2023-12-26T18:07:22.771Z,69.81
2023-12-26T18:09:49.351Z,70.11
2023-12-26T18:12:15.967Z,70.47
2023-12-26T18:14:42.825Z,70.57
2023-12-26T18:17:09.413Z,70.51
2023-12-26T18:19:35.957Z,71.23
2023-12-26T18:22:02.519Z,70.86
2023-12-26T18:24:29.056Z,70.78
2023-12-26T18:26:55.615Z,70.57
2023-12-26T18:29:23.458Z,71.39
2023-12-26T18:31:50.459Z,70.69
2023-12-26T18:34:17.151Z,71.05
2023-12-26T18:36:43.774Z,70.72
2023-12-26T18:39:11.022Z,70.75
2023-12-26T18:41:43.182Z,71.08
2023-12-26T18:44:10.949Z,70.42
2023-12-26T18:46:38.216Z,70.59
2023-12-26T18:49:08.332Z,70.93
2023-12-26T18:51:35.534Z,70.29
2023-12-26T18:54:03.082Z,70.52
2023-12-26T18:56:29.886Z,70.75
2023-12-26T18:58:57.005Z,70.76
2023-12-26T19:01:23.674Z,70.75
2023-12-26T19:03:51.442Z,71.86
2023-12-26T19:06:18.893Z,71.83
2023-12-26T19:08:45.463Z,71.21
2023-12-26T19:11:17.525Z,72.14
2023-12-26T19:13:44.444Z,71.73
2023-12-26T19:16:11.047Z,71.82
2023-12-26T19:18:37.800Z,71.45
2023-12-26T19:21:04.787Z,71.40
2023-12-26T19:23:31.583Z,71.81
2023-12-26T19:25:58.294Z,72.17
2023-12-26T19:28:24.861Z,71.60
2023-12-26T19:30:52.261Z,72.83
2023-12-26T19:33:19.240Z,71.87
2023-12-26T19:35:45.983Z,72.12
2023-12-26T19:38:14.915Z,71.54
2023-12-26T19:40:41.872Z,71.74
2023-12-26T19:43:08.435Z,72.58
2023-12-26T19:45:34.993Z,72.39
2023-12-26T19:48:01.934Z,71.91
2023-12-26T19:50:29.108Z,71.88
2023-12-26T19:52:55.994Z,71.61
2023-12-26T19:55:22.581Z,72.48
2023-12-26T19:57:49.148Z,72.52
2023-12-26T20:00:16.087Z,71.48
2023-12-26T20:02:42.757Z,71.84
2023-12-26T20:05:10.710Z,73.19
2023-12-26T20:07:38.950Z,74.13
2023-12-26T20:10:07.420Z,75.24
2023-12-26T20:12:34.757Z,76.11
2023-12-26T20:15:01.889Z,77.40
2023-12-26T20:17:28.482Z,79.20
2023-12-26T20:19:55.145Z,80.17
2023-12-26T20:22:22.133Z,80.86
2023-12-26T20:24:48.949Z,82.37
2023-12-26T20:27:15.795Z,84.82
2023-12-26T20:29:42.662Z,87.46
2023-12-26T20:32:09.360Z,90.42
2023-12-26T20:34:35.989Z,91.74
2023-12-26T20:37:02.538Z,92.51
2023-12-26T20:39:29.179Z,93.24
2023-12-26T20:41:56.168Z,93.83
2023-12-26T20:44:23.515Z,94.69
2023-12-26T20:46:52.177Z,94.95
2023-12-26T20:49:20.036Z,94.94
2023-12-26T20:51:47.033Z,96.03
2023-12-26T20:54:15.523Z,95.81
2023-12-26T20:56:43.755Z,95.83
2023-12-26T20:59:11.338Z,96.05
2023-12-26T21:01:38.601Z,96.21
2023-12-26T21:04:05.887Z,96.13
2023-12-26T21:06:33.059Z,96.06
2023-12-26T21:08:59.820Z,95.92
2023-12-26T21:11:26.440Z,95.67
2023-12-26T21:13:56.187Z,95.94
2023-12-26T21:16:22.958Z,95.87
2023-12-26T21:18:53.208Z,95.52
2023-12-26T21:21:21.878Z,95.21
2023-12-26T21:23:48.634Z,94.88
2023-12-26T21:26:15.276Z,94.70
2023-12-26T21:28:42.118Z,94.36
2023-12-26T21:31:09.911Z,94.24
2023-12-26T21:33:37.830Z,94.27
2023-12-26T21:36:05.023Z,93.83
2023-12-26T21:38:32.955Z,93.95
2023-12-26T21:41:01.108Z,93.93
2023-12-26T21:43:27.590Z,93.90
2023-12-26T21:45:54.767Z,94.00
2023-12-26T21:48:21.831Z,93.95
2023-12-26T21:50:48.658Z,94.45
2023-12-26T21:53:15.249Z,94.08
2023-12-26T21:55:42.130Z,94.06
2023-12-26T21:58:08.865Z,93.44
2023-12-26T22:00:36.175Z,92.88
2023-12-26T22:03:02.936Z,92.23
2023-12-26T22:05:29.618Z,91.99
2023-12-26T22:07:56.403Z,91.89
2023-12-26T22:10:23.138Z,92.04
2023-12-26T22:12:50.418Z,91.54
2023-12-26T22:15:23.636Z,91.68
2023-12-26T22:17:51.401Z,91.48
2023-12-26T22:20:18.278Z,91.39
2023-12-26T22:22:44.806Z,91.51
2023-12-26T22:25:11.322Z,91.16
2023-12-26T22:27:42.296Z,91.26
2023-12-26T22:30:09.436Z,90.87
2023-12-26T22:32:36.217Z,91.28
2023-12-26T22:35:03.438Z,91.08
2023-12-26T22:37:30.226Z,90.93
2023-12-26T22:39:57.190Z,90.83
2023-12-26T22:42:25.918Z,91.32
2023-12-26T22:44:53.853Z,91.68
2023-12-26T22:47:20.382Z,91.64
2023-12-26T22:49:47.069Z,91.61
2023-12-26T22:52:13.654Z,92.29
2023-12-26T22:54:41.688Z,92.74
2023-12-26T22:57:08.955Z,93.10
2023-12-26T22:59:35.550Z,93.24
2023-12-26T23:02:04.021Z,93.41
2023-12-26T23:04:30.588Z,93.84
2023-12-26T23:06:57.170Z,93.67
2023-12-26T23:09:23.798Z,93.66
2023-12-26T23:11:50.446Z,93.99
2023-12-26T23:14:17.006Z,94.15
2023-12-26T23:16:45.301Z,94.29
2023-12-26T23:19:13.540Z,94.10
2023-12-26T23:21:40.937Z,92.98
2023-12-26T23:24:08.443Z,91.88
2023-12-26T23:26:35.123Z,90.89
2023-12-26T23:29:04.805Z,89.83
2023-12-26T23:31:32.549Z,88.52
2023-12-26T23:33:59.786Z,87.21
2023-12-26T23:36:26.773Z,86.34
2023-12-26T23:38:53.477Z,84.80
2023-12-26T23:41:20.206Z,84.22
2023-12-26T23:43:46.742Z,84.82
2023-12-26T23:46:13.331Z,84.56
2023-12-26T23:48:42.582Z,83.93
2023-12-26T23:51:10.694Z,83.96
2023-12-26T23:53:37.250Z,84.10
2023-12-26T23:56:04.068Z,84.98
2023-12-26T23:58:30.685Z,85.13
